Akron, IA

8:13 AM CST on December 18, 2014 (GMT -0600)
Sioux Gateway | Change Station
CLOSE
Current Station
Airport
Location: Sioux City,
Elevation: 1102 ft
Nearby Weather Stations

Elev 1102 ft 42.39 °N, 96.38 °W | Updated 21 minutes ago

Overcast
Overcast
26 °F
Feels Like 19 °F
N
6
Wind Variable Wind from ESE

Today
High -- | Low -- °F
--% Chance of Precip.
Yesterday
High -- | Low -- °F
Precip. -- in
7:51 AM 4:53 PM
Waning Crescent, 14% visible
Pressure 30.29 in
Visibility 10.0 miles
Clouds Mostly Cloudy 5000 ft
Overcast 6000 ft
Windchill 19 °F
Dew Point 21 °F
Humidity 81%
Rainfall 0.00 in
Snow Depth Not available.
UV 0 out of 12
Pollen .10 out of 12
Air Quality Not available.
Flu Activity Not available.
METAR KSUX 181352Z 11005KT 10SM BKN050 OVC060 M03/M06 A3024 RMK AO2 SLP257 T10331061

More Conditions Fewer Conditions

Pressure 30.29 in
Visibility 10.0 miles
Clouds Mostly Cloudy 5000 ft
Overcast 6000 ft
Windchill 19 °F
Dew Point 21 °F
Humidity 81%
Rainfall 0.00 in
Snow Depth Not available.
UV 0 out of 12
Pollen .10 out of 12
Air Quality Not available.
Flu Activity Not available.
METAR KSUX 181352Z 11005KT 10SM BKN050 OVC060 M03/M06 A3024 RMK AO2 SLP257 T10331061

More Conditions Fewer Conditions

10-Day Weather Forecast

Almanac

Astronomy

Dec. 18, 2014 Rise Set
Actual Time
Civil Twilight
Nautical Twilight
Astronomical Twilight
Moon
Length of Visible Light
Length of Day
Tomorrow will be .
, % of the Moon is Illuminated

Today's Extremes

State Highs State Lows

Community

WunderPhotos

Upload Photos

1,778,930 photos uploaded!

WunderBlogs® & News

Nearby

Air Quality

  Air Quality AQ Index Pollutant
Not available.

Snow Depth

Station Depth Elevation

Earthquake Activity

City Distance Mag. Time & Date
Minimum magnitude displayed is 2.5.

Coastal Water Temperatures

Place Temperature

Nearby Weather Stations